メインページ
METAR-TAF:

METAR-TAF

空港 :

ジュネーヴ空港

ジュネーヴ, スイス

緯度: 46-15N, 経度: 006-08E, 海抜: 420m

現時点の気象観測

当レポートは31分前の16:20(UTC)に作成
変向風 2kt
気温 6°C
湿度 81%
気圧 1027 hPa
視程10km以上
高度3500ftの雲はほとんどない
高度5000ftの千切れ雲あり

METAR: LSGG 171620Z VRB02KT 9999 FEW035 BKN050 06/03 Q1027 NOSIG

時間: 17:51 (16:51 UTC)

予報

当レポートは2時間26分前の14:25(UTC)に作成
予報は17日の 15時(UTC)から 18日の 21時(UTC)まで有効
南西の風 7kt
視程10km以上
高度2000ftの雲はほとんどない
高度5000ftの千切れ雲あり
18日の 01時(UTC)から 18日の 04時(UTC)まで徐々に
変向風 3kt
視程: 0300m
高度200ftの
着氷性の霧
18日の 10時(UTC)から 18日の 12時(UTC)まで徐々に
視程10km以上
高度900ftの雲はほとんどない
高度2500ftの雲は散在している

TAF: LSGG 171425Z 1715/1821 23007KT 9999 FEW020 BKN050 TX07/1715Z TN00/1804Z TX04/1815Z BECMG 1801/1804 VRB03KT 0300 FZFG VV002 BECMG 1810/1812 9999 FEW009 SCT025

4,000以上の空港の気象観測と天気予報(METAR報とTAF報)

利用可能な観測所は地図上に黄色い丸と赤い丸で示す。

丸の上にカーソルを重ねると観測所名を参照できる。

次にクリックすると気象観測と天気予報を参照できる。

マップの切り替え:黒色「×」印の緑ボタンをクリックして拡大、「-」印の緑ボタンをクリックして縮小、緑色の三角印をクリックして隣りの地図に切り替え


METAR-TAF: